sensor_id;sensor_type;location;lat;lon;timestamp;P1;durP1;ratioP1;P2;durP2;ratioP2
4806;SDS011;2417;52.482;13.432;2023-11-21T00:00:17;45.13;;;18.97;;
4806;SDS011;2417;52.482;13.432;2023-11-21T00:02:45;45.63;;;19.10;;
4806;SDS011;2417;52.482;13.432;2023-11-21T00:05:13;50.73;;;21.60;;
4806;SDS011;2417;52.482;13.432;2023-11-21T00:07:43;46.57;;;20.60;;
4806;SDS011;2417;52.482;13.432;2023-11-21T00:10:11;68.47;;;29.67;;
4806;SDS011;2417;52.482;13.432;2023-11-21T00:12:42;42.00;;;20.50;;
4806;SDS011;2417;52.482;13.432;2023-11-21T00:15:10;51.80;;;22.33;;
4806;SDS011;2417;52.482;13.432;2023-11-21T00:17:40;48.47;;;21.80;;
4806;SDS011;2417;52.482;13.432;2023-11-21T00:20:09;68.13;;;27.57;;
4806;SDS011;2417;52.482;13.432;2023-11-21T00:22:41;72.77;;;27.60;;
4806;SDS011;2417;52.482;13.432;2023-11-21T00:25:10;78.57;;;31.10;;
4806;SDS011;2417;52.482;13.432;2023-11-21T00:27:38;77.67;;;28.37;;
4806;SDS011;2417;52.482;13.432;2023-11-21T00:30:05;69.17;;;29.03;;
4806;SDS011;2417;52.482;13.432;2023-11-21T00:32:36;132.60;;;49.10;;
4806;SDS011;2417;52.482;13.432;2023-11-21T00:35:06;72.40;;;26.83;;
4806;SDS011;2417;52.482;13.432;2023-11-21T00:37:34;76.13;;;30.20;;
4806;SDS011;2417;52.482;13.432;2023-11-21T00:40:02;100.73;;;31.47;;
4806;SDS011;2417;52.482;13.432;2023-11-21T00:42:33;100.80;;;32.73;;
4806;SDS011;2417;52.482;13.432;2023-11-21T00:45:02;119.43;;;40.40;;
4806;SDS011;2417;52.482;13.432;2023-11-21T00:47:30;110.50;;;35.53;;
4806;SDS011;2417;52.482;13.432;2023-11-21T00:49:58;126.37;;;41.37;;
4806;SDS011;2417;52.482;13.432;2023-11-21T00:52:28;105.87;;;31.57;;
4806;SDS011;2417;52.482;13.432;2023-11-21T00:54:57;119.43;;;33.47;;
4806;SDS011;2417;52.482;13.432;2023-11-21T00:57:25;107.07;;;29.43;;
4806;SDS011;2417;52.482;13.432;2023-11-21T00:59:54;108.67;;;30.70;;
4806;SDS011;2417;52.482;13.432;2023-11-21T01:02:21;104.60;;;30.47;;
4806;SDS011;2417;52.482;13.432;2023-11-21T01:04:49;105.37;;;30.20;;
4806;SDS011;2417;52.482;13.432;2023-11-21T01:07:17;110.80;;;29.17;;
4806;SDS011;2417;52.482;13.432;2023-11-21T01:09:49;116.00;;;34.60;;
4806;SDS011;2417;52.482;13.432;2023-11-21T01:12:17;112.37;;;31.53;;
4806;SDS011;2417;52.482;13.432;2023-11-21T01:14:47;111.77;;;33.17;;
4806;SDS011;2417;52.482;13.432;2023-11-21T01:17:14;114.00;;;31.57;;
4806;SDS011;2417;52.482;13.432;2023-11-21T01:19:43;133.67;;;34.70;;
4806;SDS011;2417;52.482;13.432;2023-11-21T01:22:11;132.63;;;35.60;;
4806;SDS011;2417;52.482;13.432;2023-11-21T01:24:39;147.83;;;41.00;;
4806;SDS011;2417;52.482;13.432;2023-11-21T01:27:08;121.70;;;32.00;;
4806;SDS011;2417;52.482;13.432;2023-11-21T01:29:37;129.30;;;35.13;;
4806;SDS011;2417;52.482;13.432;2023-11-21T01:32:05;140.60;;;33.10;;
4806;SDS011;2417;52.482;13.432;2023-11-21T01:34:36;146.43;;;37.83;;
4806;SDS011;2417;52.482;13.432;2023-11-21T01:37:05;142.10;;;34.97;;
4806;SDS011;2417;52.482;13.432;2023-11-21T01:39:33;160.80;;;39.20;;
4806;SDS011;2417;52.482;13.432;2023-11-21T01:42:00;181.43;;;39.80;;
4806;SDS011;2417;52.482;13.432;2023-11-21T01:44:31;169.27;;;39.30;;
4806;SDS011;2417;52.482;13.432;2023-11-21T01:46:59;189.83;;;42.70;;
4806;SDS011;2417;52.482;13.432;2023-11-21T01:49:32;205.87;;;40.40;;
4806;SDS011;2417;52.482;13.432;2023-11-21T01:52:00;200.70;;;41.77;;
4806;SDS011;2417;52.482;13.432;2023-11-21T01:54:29;194.73;;;37.77;;
4806;SDS011;2417;52.482;13.432;2023-11-21T01:56:58;182.50;;;37.40;;
4806;SDS011;2417;52.482;13.432;2023-11-21T01:59:34;190.43;;;39.60;;
4806;SDS011;2417;52.482;13.432;2023-11-21T02:02:04;170.60;;;38.30;;
4806;SDS011;2417;52.482;13.432;2023-11-21T02:04:34;178.93;;;38.80;;
4806;SDS011;2417;52.482;13.432;2023-11-21T02:07:03;156.00;;;33.80;;
4806;SDS011;2417;52.482;13.432;2023-11-21T02:09:31;166.90;;;34.20;;
4806;SDS011;2417;52.482;13.432;2023-11-21T02:12:03;145.23;;;29.67;;
4806;SDS011;2417;52.482;13.432;2023-11-21T02:14:33;135.33;;;28.07;;
4806;SDS011;2417;52.482;13.432;2023-11-21T02:17:01;134.70;;;28.83;;
4806;SDS011;2417;52.482;13.432;2023-11-21T02:19:30;123.90;;;28.33;;
4806;SDS011;2417;52.482;13.432;2023-11-21T02:21:59;129.43;;;29.80;;
4806;SDS011;2417;52.482;13.432;2023-11-21T02:24:31;122.37;;;29.20;;
4806;SDS011;2417;52.482;13.432;2023-11-21T02:26:59;112.20;;;28.63;;
4806;SDS011;2417;52.482;13.432;2023-11-21T02:29:27;111.47;;;26.80;;
4806;SDS011;2417;52.482;13.432;2023-11-21T02:31:55;101.83;;;24.77;;
4806;SDS011;2417;52.482;13.432;2023-11-21T02:34:23;121.30;;;29.00;;
4806;SDS011;2417;52.482;13.432;2023-11-21T02:36:52;117.10;;;30.03;;
4806;SDS011;2417;52.482;13.432;2023-11-21T02:39:20;134.70;;;31.70;;
4806;SDS011;2417;52.482;13.432;2023-11-21T02:41:52;103.50;;;29.37;;
4806;SDS011;2417;52.482;13.432;2023-11-21T02:44:20;113.30;;;29.70;;
4806;SDS011;2417;52.482;13.432;2023-11-21T02:46:48;106.87;;;29.03;;
4806;SDS011;2417;52.482;13.432;2023-11-21T02:49:16;96.23;;;24.30;;
4806;SDS011;2417;52.482;13.432;2023-11-21T02:51:44;109.80;;;27.20;;
4806;SDS011;2417;52.482;13.432;2023-11-21T02:54:12;111.43;;;27.87;;
4806;SDS011;2417;52.482;13.432;2023-11-21T02:56:42;73.23;;;23.00;;
4806;SDS011;2417;52.482;13.432;2023-11-21T02:59:12;86.23;;;26.60;;
4806;SDS011;2417;52.482;13.432;2023-11-21T03:01:39;70.30;;;22.60;;
4806;SDS011;2417;52.482;13.432;2023-11-21T03:04:08;93.87;;;27.33;;
4806;SDS011;2417;52.482;13.432;2023-11-21T03:06:36;75.67;;;23.77;;
4806;SDS011;2417;52.482;13.432;2023-11-21T03:09:04;79.17;;;22.93;;
4806;SDS011;2417;52.482;13.432;2023-11-21T03:11:33;77.23;;;27.60;;
4806;SDS011;2417;52.482;13.432;2023-11-21T03:14:01;62.60;;;21.97;;
4806;SDS011;2417;52.482;13.432;2023-11-21T03:16:54;66.27;;;24.03;;
4806;SDS011;2417;52.482;13.432;2023-11-21T03:19:23;61.67;;;24.50;;
4806;SDS011;2417;52.482;13.432;2023-11-21T03:21:51;71.60;;;24.77;;
4806;SDS011;2417;52.482;13.432;2023-11-21T03:24:19;65.80;;;25.00;;
4806;SDS011;2417;52.482;13.432;2023-11-21T03:26:49;72.40;;;25.50;;
4806;SDS011;2417;52.482;13.432;2023-11-21T03:29:17;66.60;;;24.80;;
4806;SDS011;2417;52.482;13.432;2023-11-21T03:31:45;56.73;;;22.60;;
4806;SDS011;2417;52.482;13.432;2023-11-21T03:34:23;56.80;;;22.27;;
4806;SDS011;2417;52.482;13.432;2023-11-21T03:36:51;69.37;;;26.77;;
4806;SDS011;2417;52.482;13.432;2023-11-21T03:39:19;52.40;;;22.13;;
4806;SDS011;2417;52.482;13.432;2023-11-21T03:41:48;58.03;;;26.00;;
4806;SDS011;2417;52.482;13.432;2023-11-21T03:44:16;63.20;;;27.53;;
4806;SDS011;2417;52.482;13.432;2023-11-21T03:46:45;74.13;;;28.57;;
4806;SDS011;2417;52.482;13.432;2023-11-21T03:49:13;46.47;;;20.27;;
4806;SDS011;2417;52.482;13.432;2023-11-21T03:51:42;45.03;;;18.87;;
4806;SDS011;2417;52.482;13.432;2023-11-21T03:54:10;56.70;;;23.10;;
4806;SDS011;2417;52.482;13.432;2023-11-21T03:56:39;44.53;;;20.47;;
4806;SDS011;2417;52.482;13.432;2023-11-21T03:59:06;52.07;;;21.23;;
4806;SDS011;2417;52.482;13.432;2023-11-21T04:01:35;58.27;;;23.07;;
4806;SDS011;2417;52.482;13.432;2023-11-21T04:04:03;52.77;;;21.07;;
4806;SDS011;2417;52.482;13.432;2023-11-21T04:06:31;61.30;;;24.53;;
4806;SDS011;2417;52.482;13.432;2023-11-21T04:09:01;49.00;;;22.20;;
4806;SDS011;2417;52.482;13.432;2023-11-21T04:11:31;57.70;;;24.00;;
4806;SDS011;2417;52.482;13.432;2023-11-21T04:13:59;48.17;;;21.33;;
4806;SDS011;2417;52.482;13.432;2023-11-21T04:16:27;43.60;;;19.03;;
4806;SDS011;2417;52.482;13.432;2023-11-21T04:18:55;42.93;;;18.90;;
4806;SDS011;2417;52.482;13.432;2023-11-21T04:21:23;37.93;;;18.47;;
4806;SDS011;2417;52.482;13.432;2023-11-21T04:23:51;40.40;;;18.23;;
4806;SDS011;2417;52.482;13.432;2023-11-21T04:26:20;47.90;;;19.03;;
4806;SDS011;2417;52.482;13.432;2023-11-21T04:28:49;34.10;;;16.13;;
4806;SDS011;2417;52.482;13.432;2023-11-21T04:31:17;36.07;;;17.20;;
4806;SDS011;2417;52.482;13.432;2023-11-21T04:33:45;39.77;;;18.80;;
4806;SDS011;2417;52.482;13.432;2023-11-21T04:36:13;29.83;;;12.73;;
4806;SDS011;2417;52.482;13.432;2023-11-21T04:38:41;26.83;;;14.00;;
4806;SDS011;2417;52.482;13.432;2023-11-21T04:41:09;28.70;;;13.90;;
4806;SDS011;2417;52.482;13.432;2023-11-21T04:43:38;31.77;;;15.87;;
4806;SDS011;2417;52.482;13.432;2023-11-21T04:46:07;31.37;;;15.40;;
4806;SDS011;2417;52.482;13.432;2023-11-21T04:48:34;36.00;;;17.30;;
4806;SDS011;2417;52.482;13.432;2023-11-21T04:51:02;37.93;;;18.23;;
4806;SDS011;2417;52.482;13.432;2023-11-21T04:53:31;38.23;;;17.33;;
4806;SDS011;2417;52.482;13.432;2023-11-21T04:56:01;36.87;;;16.97;;
4806;SDS011;2417;52.482;13.432;2023-11-21T04:58:29;43.70;;;19.03;;
4806;SDS011;2417;52.482;13.432;2023-11-21T05:01:00;47.57;;;21.63;;
4806;SDS011;2417;52.482;13.432;2023-11-21T05:03:32;42.20;;;18.27;;
4806;SDS011;2417;52.482;13.432;2023-11-21T05:06:00;37.23;;;16.50;;
4806;SDS011;2417;52.482;13.432;2023-11-21T05:08:28;33.30;;;15.90;;
4806;SDS011;2417;52.482;13.432;2023-11-21T05:10:56;37.33;;;15.80;;
4806;SDS011;2417;52.482;13.432;2023-11-21T05:13:24;35.23;;;14.57;;
4806;SDS011;2417;52.482;13.432;2023-11-21T05:15:54;27.70;;;13.30;;
4806;SDS011;2417;52.482;13.432;2023-11-21T05:18:24;39.07;;;16.20;;
4806;SDS011;2417;52.482;13.432;2023-11-21T05:20:54;29.13;;;14.03;;
4806;SDS011;2417;52.482;13.432;2023-11-21T05:23:21;28.20;;;12.37;;
4806;SDS011;2417;52.482;13.432;2023-11-21T05:25:49;34.23;;;14.73;;
4806;SDS011;2417;52.482;13.432;2023-11-21T05:28:17;34.53;;;15.77;;
4806;SDS011;2417;52.482;13.432;2023-11-21T05:30:45;37.50;;;14.77;;
4806;SDS011;2417;52.482;13.432;2023-11-21T05:33:13;26.57;;;12.97;;
4806;SDS011;2417;52.482;13.432;2023-11-21T05:35:42;37.03;;;17.80;;
4806;SDS011;2417;52.482;13.432;2023-11-21T05:38:11;28.30;;;13.07;;
4806;SDS011;2417;52.482;13.432;2023-11-21T05:40:40;32.57;;;14.63;;
4806;SDS011;2417;52.482;13.432;2023-11-21T05:43:08;31.00;;;14.30;;
4806;SDS011;2417;52.482;13.432;2023-11-21T05:45:35;31.00;;;13.90;;
4806;SDS011;2417;52.482;13.432;2023-11-21T05:48:03;34.23;;;17.30;;
4806;SDS011;2417;52.482;13.432;2023-11-21T05:50:33;34.13;;;17.20;;
4806;SDS011;2417;52.482;13.432;2023-11-21T05:53:03;29.20;;;13.40;;
4806;SDS011;2417;52.482;13.432;2023-11-21T05:55:31;31.80;;;15.50;;
4806;SDS011;2417;52.482;13.432;2023-11-21T05:57:59;39.33;;;15.80;;
4806;SDS011;2417;52.482;13.432;2023-11-21T06:00:27;28.97;;;13.53;;
4806;SDS011;2417;52.482;13.432;2023-11-21T06:02:55;36.97;;;16.10;;
4806;SDS011;2417;52.482;13.432;2023-11-21T06:05:24;34.80;;;15.40;;
4806;SDS011;2417;52.482;13.432;2023-11-21T06:07:53;34.77;;;15.27;;
4806;SDS011;2417;52.482;13.432;2023-11-21T06:10:24;35.30;;;16.17;;
4806;SDS011;2417;52.482;13.432;2023-11-21T06:12:52;40.87;;;17.23;;
4806;SDS011;2417;52.482;13.432;2023-11-21T06:15:20;35.80;;;17.23;;
4806;SDS011;2417;52.482;13.432;2023-11-21T06:17:50;30.50;;;14.80;;
4806;SDS011;2417;52.482;13.432;2023-11-21T06:20:21;37.27;;;15.87;;
4806;SDS011;2417;52.482;13.432;2023-11-21T06:22:49;39.27;;;15.03;;
4806;SDS011;2417;52.482;13.432;2023-11-21T06:25:18;34.33;;;16.30;;
4806;SDS011;2417;52.482;13.432;2023-11-21T06:27:48;33.07;;;15.90;;
4806;SDS011;2417;52.482;13.432;2023-11-21T06:30:16;37.33;;;13.50;;
4806;SDS011;2417;52.482;13.432;2023-11-21T06:32:47;34.43;;;13.40;;
4806;SDS011;2417;52.482;13.432;2023-11-21T06:35:15;29.57;;;14.00;;
4806;SDS011;2417;52.482;13.432;2023-11-21T06:37:44;24.40;;;12.27;;
4806;SDS011;2417;52.482;13.432;2023-11-21T06:40:17;23.47;;;12.30;;
4806;SDS011;2417;52.482;13.432;2023-11-21T06:42:48;34.70;;;16.60;;
4806;SDS011;2417;52.482;13.432;2023-11-21T06:45:18;25.80;;;11.70;;
4806;SDS011;2417;52.482;13.432;2023-11-21T06:47:47;29.00;;;13.80;;
4806;SDS011;2417;52.482;13.432;2023-11-21T06:50:15;25.63;;;11.97;;
4806;SDS011;2417;52.482;13.432;2023-11-21T06:52:43;26.20;;;13.33;;
4806;SDS011;2417;52.482;13.432;2023-11-21T06:55:11;28.10;;;13.60;;
4806;SDS011;2417;52.482;13.432;2023-11-21T06:57:39;27.63;;;13.20;;
4806;SDS011;2417;52.482;13.432;2023-11-21T07:00:09;24.03;;;11.47;;
4806;SDS011;2417;52.482;13.432;2023-11-21T07:02:38;29.60;;;14.20;;
4806;SDS011;2417;52.482;13.432;2023-11-21T07:05:06;26.07;;;13.20;;
4806;SDS011;2417;52.482;13.432;2023-11-21T07:07:35;25.30;;;11.80;;
4806;SDS011;2417;52.482;13.432;2023-11-21T07:10:04;32.60;;;16.20;;
4806;SDS011;2417;52.482;13.432;2023-11-21T07:12:33;26.23;;;14.03;;
4806;SDS011;2417;52.482;13.432;2023-11-21T07:15:01;22.33;;;11.87;;
4806;SDS011;2417;52.482;13.432;2023-11-21T07:17:33;30.53;;;13.97;;
4806;SDS011;2417;52.482;13.432;2023-11-21T07:20:06;20.33;;;11.00;;
4806;SDS011;2417;52.482;13.432;2023-11-21T07:22:34;20.37;;;11.30;;
4806;SDS011;2417;52.482;13.432;2023-11-21T07:25:02;26.27;;;12.77;;
4806;SDS011;2417;52.482;13.432;2023-11-21T07:27:30;20.40;;;11.53;;
4806;SDS011;2417;52.482;13.432;2023-11-21T07:30:00;22.37;;;12.47;;
4806;SDS011;2417;52.482;13.432;2023-11-21T07:32:31;23.90;;;11.40;;
4806;SDS011;2417;52.482;13.432;2023-11-21T07:35:01;20.20;;;11.60;;
4806;SDS011;2417;52.482;13.432;2023-11-21T07:37:50;20.10;;;10.63;;
4806;SDS011;2417;52.482;13.432;2023-11-21T07:40:18;24.27;;;12.50;;
4806;SDS011;2417;52.482;13.432;2023-11-21T07:42:46;22.13;;;11.90;;
4806;SDS011;2417;52.482;13.432;2023-11-21T07:45:15;21.67;;;11.50;;
4806;SDS011;2417;52.482;13.432;2023-11-21T07:47:43;25.37;;;12.17;;
4806;SDS011;2417;52.482;13.432;2023-11-21T07:50:13;21.97;;;12.57;;
4806;SDS011;2417;52.482;13.432;2023-11-21T07:52:41;17.13;;;10.07;;
4806;SDS011;2417;52.482;13.432;2023-11-21T07:55:09;18.43;;;10.30;;
4806;SDS011;2417;52.482;13.432;2023-11-21T07:57:38;19.23;;;11.07;;
4806;SDS011;2417;52.482;13.432;2023-11-21T08:00:06;16.30;;;9.10;;
4806;SDS011;2417;52.482;13.432;2023-11-21T08:02:39;18.80;;;10.40;;
4806;SDS011;2417;52.482;13.432;2023-11-21T08:05:09;18.57;;;10.70;;
4806;SDS011;2417;52.482;13.432;2023-11-21T08:07:51;22.30;;;10.80;;
4806;SDS011;2417;52.482;13.432;2023-11-21T08:10:20;18.17;;;9.13;;
4806;SDS011;2417;52.482;13.432;2023-11-21T08:12:48;21.10;;;9.23;;
4806;SDS011;2417;52.482;13.432;2023-11-21T08:15:17;22.80;;;9.17;;
4806;SDS011;2417;52.482;13.432;2023-11-21T08:17:45;20.17;;;9.53;;
4806;SDS011;2417;52.482;13.432;2023-11-21T08:20:14;19.00;;;8.27;;
4806;SDS011;2417;52.482;13.432;2023-11-21T08:22:43;22.87;;;9.30;;
4806;SDS011;2417;52.482;13.432;2023-11-21T08:25:12;21.57;;;8.30;;
4806;SDS011;2417;52.482;13.432;2023-11-21T08:27:40;20.47;;;8.37;;
4806;SDS011;2417;52.482;13.432;2023-11-21T08:30:08;22.87;;;10.30;;
4806;SDS011;2417;52.482;13.432;2023-11-21T08:32:36;22.87;;;9.13;;
4806;SDS011;2417;52.482;13.432;2023-11-21T08:35:04;22.70;;;9.50;;
4806;SDS011;2417;52.482;13.432;2023-11-21T08:37:33;29.37;;;9.30;;
4806;SDS011;2417;52.482;13.432;2023-11-21T08:40:05;23.67;;;9.33;;
4806;SDS011;2417;52.482;13.432;2023-11-21T08:42:37;30.53;;;9.43;;
4806;SDS011;2417;52.482;13.432;2023-11-21T08:45:06;27.20;;;10.20;;
4806;SDS011;2417;52.482;13.432;2023-11-21T08:47:35;29.73;;;10.50;;
4806;SDS011;2417;52.482;13.432;2023-11-21T08:50:04;22.87;;;10.17;;
4806;SDS011;2417;52.482;13.432;2023-11-21T08:52:32;31.83;;;10.43;;
4806;SDS011;2417;52.482;13.432;2023-11-21T08:55:00;25.53;;;9.83;;
4806;SDS011;2417;52.482;13.432;2023-11-21T08:57:34;27.00;;;10.93;;
4806;SDS011;2417;52.482;13.432;2023-11-21T09:00:04;30.77;;;10.40;;
4806;SDS011;2417;52.482;13.432;2023-11-21T09:02:34;22.70;;;9.80;;
4806;SDS011;2417;52.482;13.432;2023-11-21T09:05:04;32.23;;;10.83;;
4806;SDS011;2417;52.482;13.432;2023-11-21T09:07:33;22.97;;;10.07;;
4806;SDS011;2417;52.482;13.432;2023-11-21T09:10:00;28.40;;;10.10;;
4806;SDS011;2417;52.482;13.432;2023-11-21T09:12:28;27.47;;;10.67;;
4806;SDS011;2417;52.482;13.432;2023-11-21T09:14:59;27.50;;;10.17;;
4806;SDS011;2417;52.482;13.432;2023-11-21T09:17:28;27.70;;;9.40;;
4806;SDS011;2417;52.482;13.432;2023-11-21T09:19:56;24.63;;;10.47;;
4806;SDS011;2417;52.482;13.432;2023-11-21T09:22:24;30.53;;;9.87;;
4806;SDS011;2417;52.482;13.432;2023-11-21T09:24:52;29.33;;;11.83;;
4806;SDS011;2417;52.482;13.432;2023-11-21T09:27:20;28.63;;;10.00;;
4806;SDS011;2417;52.482;13.432;2023-11-21T09:29:48;32.30;;;11.57;;
4806;SDS011;2417;52.482;13.432;2023-11-21T09:32:17;19.73;;;8.93;;
4806;SDS011;2417;52.482;13.432;2023-11-21T09:34:46;24.40;;;9.13;;
4806;SDS011;2417;52.482;13.432;2023-11-21T09:37:14;23.70;;;8.80;;
4806;SDS011;2417;52.482;13.432;2023-11-21T09:39:42;24.57;;;7.80;;
4806;SDS011;2417;52.482;13.432;2023-11-21T09:42:12;28.67;;;8.30;;
4806;SDS011;2417;52.482;13.432;2023-11-21T09:44:44;14.50;;;6.80;;
4806;SDS011;2417;52.482;13.432;2023-11-21T09:47:15;19.43;;;8.80;;
4806;SDS011;2417;52.482;13.432;2023-11-21T09:49:44;24.13;;;10.17;;
4806;SDS011;2417;52.482;13.432;2023-11-21T09:52:26;17.93;;;8.93;;
4806;SDS011;2417;52.482;13.432;2023-11-21T09:54:55;16.67;;;6.80;;
4806;SDS011;2417;52.482;13.432;2023-11-21T09:57:23;16.07;;;6.80;;
4806;SDS011;2417;52.482;13.432;2023-11-21T09:59:52;12.50;;;6.33;;
4806;SDS011;2417;52.482;13.432;2023-11-21T10:02:22;14.03;;;6.40;;
4806;SDS011;2417;52.482;13.432;2023-11-21T10:04:53;14.47;;;6.80;;
4806;SDS011;2417;52.482;13.432;2023-11-21T10:07:22;11.57;;;5.80;;
4806;SDS011;2417;52.482;13.432;2023-11-21T10:09:50;14.23;;;6.33;;
4806;SDS011;2417;52.482;13.432;2023-11-21T10:12:18;11.73;;;5.80;;
4806;SDS011;2417;52.482;13.432;2023-11-21T10:14:48;8.63;;;4.90;;
4806;SDS011;2417;52.482;13.432;2023-11-21T10:17:16;10.23;;;5.37;;
4806;SDS011;2417;52.482;13.432;2023-11-21T10:19:46;11.00;;;5.33;;
4806;SDS011;2417;52.482;13.432;2023-11-21T10:22:14;10.43;;;5.23;;
4806;SDS011;2417;52.482;13.432;2023-11-21T10:24:44;6.73;;;4.37;;
4806;SDS011;2417;52.482;13.432;2023-11-21T10:27:19;8.23;;;5.33;;
4806;SDS011;2417;52.482;13.432;2023-11-21T10:29:47;10.50;;;4.53;;
4806;SDS011;2417;52.482;13.432;2023-11-21T10:32:19;10.20;;;4.83;;
4806;SDS011;2417;52.482;13.432;2023-11-21T10:34:55;11.63;;;6.03;;
4806;SDS011;2417;52.482;13.432;2023-11-21T10:37:23;11.97;;;5.93;;
4806;SDS011;2417;52.482;13.432;2023-11-21T10:39:55;10.37;;;5.80;;
4806;SDS011;2417;52.482;13.432;2023-11-21T10:42:24;10.60;;;4.93;;
4806;SDS011;2417;52.482;13.432;2023-11-21T10:44:54;8.00;;;4.80;;
4806;SDS011;2417;52.482;13.432;2023-11-21T10:47:23;5.40;;;3.80;;
4806;SDS011;2417;52.482;13.432;2023-11-21T10:49:51;9.47;;;5.10;;
4806;SDS011;2417;52.482;13.432;2023-11-21T10:52:20;8.10;;;4.70;;
4806;SDS011;2417;52.482;13.432;2023-11-21T10:54:47;7.57;;;4.47;;
4806;SDS011;2417;52.482;13.432;2023-11-21T10:57:17;9.20;;;5.93;;
4806;SDS011;2417;52.482;13.432;2023-11-21T10:59:46;9.57;;;5.50;;
4806;SDS011;2417;52.482;13.432;2023-11-21T11:02:19;8.13;;;5.23;;
4806;SDS011;2417;52.482;13.432;2023-11-21T11:04:49;10.47;;;5.80;;
4806;SDS011;2417;52.482;13.432;2023-11-21T11:07:17;6.80;;;4.27;;
4806;SDS011;2417;52.482;13.432;2023-11-21T11:09:46;9.80;;;5.63;;
4806;SDS011;2417;52.482;13.432;2023-11-21T11:12:14;11.50;;;6.03;;
4806;SDS011;2417;52.482;13.432;2023-11-21T11:14:45;14.73;;;6.90;;
4806;SDS011;2417;52.482;13.432;2023-11-21T11:17:14;11.00;;;6.20;;
4806;SDS011;2417;52.482;13.432;2023-11-21T11:19:43;12.70;;;6.23;;
4806;SDS011;2417;52.482;13.432;2023-11-21T11:22:14;10.43;;;6.00;;
4806;SDS011;2417;52.482;13.432;2023-11-21T11:24:50;12.70;;;7.30;;
4806;SDS011;2417;52.482;13.432;2023-11-21T11:27:25;11.20;;;7.03;;
4806;SDS011;2417;52.482;13.432;2023-11-21T11:30:04;8.67;;;5.60;;
4806;SDS011;2417;52.482;13.432;2023-11-21T11:32:40;16.57;;;7.00;;
4806;SDS011;2417;52.482;13.432;2023-11-21T11:35:13;11.40;;;5.17;;
4806;SDS011;2417;52.482;13.432;2023-11-21T11:38:06;12.43;;;6.57;;
4806;SDS011;2417;52.482;13.432;2023-11-21T11:40:38;11.53;;;6.40;;
4806;SDS011;2417;52.482;13.432;2023-11-21T11:43:07;9.77;;;5.80;;
4806;SDS011;2417;52.482;13.432;2023-11-21T11:45:36;9.67;;;5.30;;
4806;SDS011;2417;52.482;13.432;2023-11-21T11:48:08;13.67;;;6.50;;
4806;SDS011;2417;52.482;13.432;2023-11-21T11:50:42;8.13;;;5.50;;
4806;SDS011;2417;52.482;13.432;2023-11-21T11:53:13;12.13;;;6.77;;
4806;SDS011;2417;52.482;13.432;2023-11-21T11:55:42;9.43;;;6.03;;
4806;SDS011;2417;52.482;13.432;2023-11-21T11:58:11;17.97;;;9.73;;
4806;SDS011;2417;52.482;13.432;2023-11-21T12:00:40;9.83;;;5.70;;
4806;SDS011;2417;52.482;13.432;2023-11-21T12:03:10;10.87;;;6.33;;
4806;SDS011;2417;52.482;13.432;2023-11-21T12:05:40;11.77;;;7.07;;
4806;SDS011;2417;52.482;13.432;2023-11-21T12:08:12;8.40;;;4.97;;
4806;SDS011;2417;52.482;13.432;2023-11-21T12:10:40;8.67;;;5.57;;
4806;SDS011;2417;52.482;13.432;2023-11-21T12:13:09;6.70;;;4.83;;
4806;SDS011;2417;52.482;13.432;2023-11-21T12:15:41;8.40;;;4.90;;
4806;SDS011;2417;52.482;13.432;2023-11-21T12:18:10;7.20;;;5.03;;
4806;SDS011;2417;52.482;13.432;2023-11-21T12:20:38;8.47;;;5.10;;
4806;SDS011;2417;52.482;13.432;2023-11-21T12:23:07;7.60;;;5.20;;
4806;SDS011;2417;52.482;13.432;2023-11-21T12:25:38;7.57;;;5.13;;
4806;SDS011;2417;52.482;13.432;2023-11-21T12:28:09;5.60;;;3.97;;
4806;SDS011;2417;52.482;13.432;2023-11-21T12:30:41;5.73;;;4.23;;
4806;SDS011;2417;52.482;13.432;2023-11-21T12:33:11;4.87;;;3.67;;
4806;SDS011;2417;52.482;13.432;2023-11-21T12:35:48;7.50;;;4.70;;
4806;SDS011;2417;52.482;13.432;2023-11-21T12:38:22;5.47;;;3.60;;
4806;SDS011;2417;52.482;13.432;2023-11-21T12:40:51;9.10;;;4.17;;
4806;SDS011;2417;52.482;13.432;2023-11-21T12:43:21;5.07;;;3.60;;
4806;SDS011;2417;52.482;13.432;2023-11-21T12:45:50;6.73;;;4.03;;
4806;SDS011;2417;52.482;13.432;2023-11-21T12:48:19;4.93;;;3.57;;
4806;SDS011;2417;52.482;13.432;2023-11-21T12:50:51;4.27;;;3.50;;
4806;SDS011;2417;52.482;13.432;2023-11-21T12:53:19;7.97;;;3.97;;
4806;SDS011;2417;52.482;13.432;2023-11-21T12:55:48;6.53;;;4.37;;
4806;SDS011;2417;52.482;13.432;2023-11-21T12:58:20;9.07;;;4.80;;
4806;SDS011;2417;52.482;13.432;2023-11-21T13:00:51;8.93;;;5.20;;
4806;SDS011;2417;52.482;13.432;2023-11-21T13:03:20;12.93;;;5.13;;
4806;SDS011;2417;52.482;13.432;2023-11-21T13:05:52;7.10;;;4.33;;
4806;SDS011;2417;52.482;13.432;2023-11-21T13:08:24;7.70;;;4.60;;
4806;SDS011;2417;52.482;13.432;2023-11-21T13:10:52;9.17;;;5.73;;
4806;SDS011;2417;52.482;13.432;2023-11-21T13:13:24;10.67;;;6.17;;
4806;SDS011;2417;52.482;13.432;2023-11-21T13:15:56;9.40;;;6.50;;
4806;SDS011;2417;52.482;13.432;2023-11-21T13:18:27;7.90;;;5.90;;
4806;SDS011;2417;52.482;13.432;2023-11-21T13:20:58;9.60;;;5.63;;
4806;SDS011;2417;52.482;13.432;2023-11-21T13:23:26;8.17;;;5.30;;
4806;SDS011;2417;52.482;13.432;2023-11-21T13:25:55;10.63;;;6.40;;
4806;SDS011;2417;52.482;13.432;2023-11-21T13:28:32;12.47;;;6.67;;
4806;SDS011;2417;52.482;13.432;2023-11-21T13:31:02;9.63;;;5.37;;
4806;SDS011;2417;52.482;13.432;2023-11-21T13:33:37;10.17;;;6.50;;
4806;SDS011;2417;52.482;13.432;2023-11-21T13:36:08;11.27;;;6.43;;
4806;SDS011;2417;52.482;13.432;2023-11-21T13:38:37;9.80;;;6.20;;
4806;SDS011;2417;52.482;13.432;2023-11-21T13:41:09;14.07;;;7.50;;
4806;SDS011;2417;52.482;13.432;2023-11-21T13:43:41;13.60;;;7.87;;
4806;SDS011;2417;52.482;13.432;2023-11-21T13:46:12;14.90;;;8.80;;
4806;SDS011;2417;52.482;13.432;2023-11-21T13:48:44;14.47;;;8.83;;
4806;SDS011;2417;52.482;13.432;2023-11-21T13:51:18;15.60;;;9.17;;
4806;SDS011;2417;52.482;13.432;2023-11-21T13:53:47;18.30;;;10.03;;
4806;SDS011;2417;52.482;13.432;2023-11-21T13:56:18;17.77;;;9.47;;
4806;SDS011;2417;52.482;13.432;2023-11-21T13:58:51;18.13;;;10.23;;
4806;SDS011;2417;52.482;13.432;2023-11-21T14:01:22;17.37;;;10.07;;
4806;SDS011;2417;52.482;13.432;2023-11-21T14:04:11;18.17;;;9.70;;
4806;SDS011;2417;52.482;13.432;2023-11-21T14:06:49;23.03;;;13.17;;
4806;SDS011;2417;52.482;13.432;2023-11-21T14:09:21;23.37;;;11.83;;
4806;SDS011;2417;52.482;13.432;2023-11-21T14:11:51;18.70;;;11.63;;
4806;SDS011;2417;52.482;13.432;2023-11-21T14:14:21;20.13;;;11.13;;
4806;SDS011;2417;52.482;13.432;2023-11-21T14:16:51;22.43;;;11.40;;
4806;SDS011;2417;52.482;13.432;2023-11-21T14:19:20;20.43;;;12.07;;
4806;SDS011;2417;52.482;13.432;2023-11-21T14:21:48;25.93;;;14.17;;
4806;SDS011;2417;52.482;13.432;2023-11-21T14:24:16;25.10;;;13.60;;
4806;SDS011;2417;52.482;13.432;2023-11-21T14:26:45;29.07;;;15.27;;
4806;SDS011;2417;52.482;13.432;2023-11-21T14:29:13;31.93;;;17.93;;
4806;SDS011;2417;52.482;13.432;2023-11-21T14:31:44;34.63;;;17.73;;
4806;SDS011;2417;52.482;13.432;2023-11-21T14:34:13;31.67;;;16.90;;
4806;SDS011;2417;52.482;13.432;2023-11-21T14:36:47;40.97;;;19.87;;
4806;SDS011;2417;52.482;13.432;2023-11-21T14:39:16;36.93;;;18.60;;
4806;SDS011;2417;52.482;13.432;2023-11-21T14:41:52;36.50;;;19.70;;
4806;SDS011;2417;52.482;13.432;2023-11-21T14:44:22;42.10;;;21.67;;
4806;SDS011;2417;52.482;13.432;2023-11-21T14:46:53;38.97;;;20.20;;
4806;SDS011;2417;52.482;13.432;2023-11-21T14:49:26;40.20;;;20.97;;
4806;SDS011;2417;52.482;13.432;2023-11-21T14:52:02;43.30;;;23.13;;